Time,TemperatureF,DewpointF,PressureIn,WindDirection,WindDirectionDegrees,WindSpeedMPH,WindSpeedGustMPH,Humidity,HourlyPrecipIn,Conditions,Clouds,dailyrainin,SoftwareType,DateUTC
2013-02-17 00:05:00,-11.0,-17.0,29.67,SW,225,0.0,0.0,74,0.00,,,-99.99,VWS V12.07,2013-02-17 06:05:00,
2013-02-17 00:10:00,-11.3,-17.3,29.67,SW,225,0.0,0.0,74,0.00,,,-99.99,VWS V12.07,2013-02-17 06:10:00,
2013-02-17 00:15:00,-11.5,-17.7,29.67,SW,225,0.0,0.0,73,0.00,,,-99.99,VWS V12.07,2013-02-17 06:15:00,
2013-02-17 00:20:00,-11.5,-17.7,29.67,SW,225,0.0,0.0,73,0.00,,,-99.99,VWS V12.07,2013-02-17 06:20:00,
2013-02-17 00:25:00,-11.9,-18.1,29.67,SW,225,0.0,0.0,73,0.00,,,-99.99,VWS V12.07,2013-02-17 06:25:00,
2013-02-17 00:35:00,-12.1,-18.3,29.66,SW,225,0.0,0.0,73,0.00,,,-99.99,VWS V12.07,2013-02-17 06:35:00,
2013-02-17 00:40:00,-12.2,-18.1,29.66,SW,225,0.0,0.0,74,0.00,,,-99.99,VWS V12.07,2013-02-17 06:40:00,
2013-02-17 00:45:00,-12.4,-18.3,29.67,SW,225,0.0,0.0,74,0.00,,,-99.99,VWS V12.07,2013-02-17 06:45:00,
2013-02-17 00:50:00,-12.4,-18.6,29.67,SW,225,0.0,0.0,73,0.00,,,-99.99,VWS V12.07,2013-02-17 06:50:00,
2013-02-17 00:55:00,-12.6,-18.5,29.67,SW,225,0.0,0.0,74,0.00,,,-99.99,VWS V12.07,2013-02-17 06:55:00,
2013-02-17 01:00:00,-12.8,-18.7,29.67,SW,225,0.0,0.0,74,0.00,,,-99.99,VWS V12.07,2013-02-17 07:00:00,
2013-02-17 01:10:00,-13.1,-19.0,29.67,SW,225,0.0,0.0,74,0.00,,,-99.99,VWS V12.07,2013-02-17 07:10:00,
2013-02-17 01:15:00,-13.3,-19.2,29.67,SW,225,0.0,0.0,74,0.00,,,-99.99,VWS V12.07,2013-02-17 07:15:00,
2013-02-17 01:20:00,-13.3,-19.2,29.67,SW,225,0.0,0.0,74,0.00,,,-99.99,VWS V12.07,2013-02-17 07:20:00,
2013-02-17 01:25:00,-13.7,-19.6,29.67,SW,225,0.0,0.0,74,0.00,,,-99.99,VWS V12.07,2013-02-17 07:25:00,
2013-02-17 01:30:00,-13.9,-19.8,29.67,SW,225,0.0,0.0,74,0.00,,,-99.99,VWS V12.07,2013-02-17 07:30:00,
2013-02-17 01:35:00,-14.0,-19.9,29.67,SW,225,0.0,0.0,74,0.00,,,-99.99,VWS V12.07,2013-02-17 07:35:00,
2013-02-17 01:40:00,-14.0,-20.1,29.67,SW,225,0.0,0.0,73,0.00,,,-99.99,VWS V12.07,2013-02-17 07:40:00,
2013-02-17 01:45:00,-14.0,-20.1,29.67,SW,225,0.0,0.0,73,0.00,,,-99.99,VWS V12.07,2013-02-17 07:45:00,
2013-02-17 01:50:00,-14.2,-20.3,29.67,SW,225,0.0,0.0,73,0.00,,,-99.99,VWS V12.07,2013-02-17 07:50:00,
2013-02-17 01:55:00,-14.4,-20.5,29.67,SW,225,0.0,0.0,73,0.00,,,-99.99,VWS V12.07,2013-02-17 07:55:00,
2013-02-17 02:00:00,-14.6,-20.7,29.67,SW,225,0.0,0.0,73,0.00,,,-99.99,VWS V12.07,2013-02-17 08:00:00,
2013-02-17 02:05:00,-14.6,-20.7,29.67,SW,225,0.0,0.0,73,0.00,,,-99.99,VWS V12.07,2013-02-17 08:05:00,
2013-02-17 02:10:00,-14.6,-20.7,29.67,SW,225,0.0,0.0,73,0.00,,,-99.99,VWS V12.07,2013-02-17 08:10:00,
2013-02-17 02:15:00,-14.8,-20.9,29.67,SW,225,0.0,0.0,73,0.00,,,-99.99,VWS V12.07,2013-02-17 08:15:00,
2013-02-17 02:20:00,-14.9,-21.0,29.67,SW,225,0.0,0.0,73,0.00,,,-99.99,VWS V12.07,2013-02-17 08:20:00,
2013-02-17 02:30:00,-14.9,-21.0,29.67,SW,225,0.0,0.0,73,0.00,,,-99.99,VWS V12.07,2013-02-17 08:30:00,
2013-02-17 02:35:00,-15.1,-21.2,29.67,SW,225,0.0,0.0,73,0.00,,,-99.99,VWS V12.07,2013-02-17 08:35:00,
2013-02-17 02:40:00,-15.1,-21.2,29.67,SW,225,0.0,0.0,73,0.00,,,-99.99,VWS V12.07,2013-02-17 08:40:00,
2013-02-17 02:45:00,-15.1,-20.9,29.67,SW,225,0.0,0.0,74,0.00,,,-99.99,VWS V12.07,2013-02-17 08:45:00,
2013-02-17 02:50:00,-15.1,-20.9,29.67,SW,225,0.0,0.0,74,0.00,,,-99.99,VWS V12.07,2013-02-17 08:50:00,
2013-02-17 02:55:00,-15.5,-21.6,29.67,SW,225,0.0,0.0,73,0.00,,,-99.99,VWS V12.07,2013-02-17 08:55:00,
2013-02-17 03:00:00,-15.5,-21.6,29.67,SW,225,0.0,0.0,73,0.00,,,-99.99,VWS V12.07,2013-02-17 09:00:00,
2013-02-17 03:05:00,-15.7,-21.5,29.67,SW,225,0.0,0.0,74,0.00,,,-99.99,VWS V12.07,2013-02-17 09:05:00,
2013-02-17 03:10:00,-15.8,-21.6,29.67,SW,225,0.0,0.0,74,0.00,,,-99.99,VWS V12.07,2013-02-17 09:10:00,
2013-02-17 03:15:00,-15.8,-21.6,29.67,SW,225,0.0,0.0,74,0.00,,,-99.99,VWS V12.07,2013-02-17 09:15:00,
2013-02-17 03:20:00,-16.0,-21.8,29.67,SW,225,0.0,0.0,74,0.00,,,-99.99,VWS V12.07,2013-02-17 09:20:00,
2013-02-17 03:25:00,-16.0,-21.8,29.67,SW,225,0.0,0.0,74,0.00,,,-99.99,VWS V12.07,2013-02-17 09:25:00,
2013-02-17 03:30:00,-16.0,-21.8,29.66,SW,225,0.0,0.0,74,0.00,,,-99.99,VWS V12.07,2013-02-17 09:30:00,
2013-02-17 03:35:00,-16.2,-22.0,29.66,SW,225,0.0,0.0,74,0.00,,,-99.99,VWS V12.07,2013-02-17 09:35:00,
2013-02-17 03:40:00,-16.4,-22.2,29.66,SW,225,0.0,0.0,74,0.00,,,-99.99,VWS V12.07,2013-02-17 09:40:00,
2013-02-17 03:45:00,-16.6,-22.4,29.66,SW,225,0.0,0.0,74,0.00,,,-99.99,VWS V12.07,2013-02-17 09:45:00,
2013-02-17 03:50:00,-16.6,-22.4,29.66,SW,225,0.0,0.0,74,0.00,,,-99.99,VWS V12.07,2013-02-17 09:50:00,
2013-02-17 03:55:00,-16.7,-22.5,29.66,SW,225,0.0,0.0,74,0.00,,,-99.99,VWS V12.07,2013-02-17 09:55:00,
2013-02-17 04:00:00,-16.7,-22.8,29.66,SW,225,0.0,0.0,73,0.00,,,-99.99,VWS V12.07,2013-02-17 10:00:00,
2013-02-17 04:05:00,-16.7,-22.8,29.66,SW,225,0.0,0.0,73,0.00,,,-99.99,VWS V12.07,2013-02-17 10:05:00,
2013-02-17 04:10:00,-16.9,-23.0,29.66,SW,225,0.0,0.0,73,0.00,,,-99.99,VWS V12.07,2013-02-17 10:10:00,
2013-02-17 04:15:00,-16.9,-23.0,29.66,SW,225,0.0,0.0,73,0.00,,,-99.99,VWS V12.07,2013-02-17 10:15:00,
2013-02-17 04:20:00,-17.1,-23.1,29.66,SW,225,0.0,0.0,73,0.00,,,-99.99,VWS V12.07,2013-02-17 10:20:00,
2013-02-17 04:30:00,-17.3,-23.3,29.65,SW,225,0.0,0.0,73,0.00,,,-99.99,VWS V12.07,2013-02-17 10:30:00,
2013-02-17 04:35:00,-17.5,-23.5,29.65,SW,225,0.0,0.0,73,0.00,,,-99.99,VWS V12.07,2013-02-17 10:35:00,
2013-02-17 04:40:00,-17.6,-23.6,29.66,SW,225,0.0,0.0,73,0.00,,,-99.99,VWS V12.07,2013-02-17 10:40:00,
2013-02-17 04:50:00,-17.6,-23.6,29.65,SW,225,0.0,0.0,73,0.00,,,-99.99,VWS V12.07,2013-02-17 10:50:00,
2013-02-17 05:00:00,-18.0,-24.0,29.65,SW,225,0.0,0.0,73,0.00,,,-99.99,VWS V12.07,2013-02-17 11:00:00,
2013-02-17 05:05:00,-18.2,-24.2,29.65,SW,225,0.0,0.0,73,0.00,,,-99.99,VWS V12.07,2013-02-17 11:05:00,
2013-02-17 05:10:00,-18.2,-24.2,29.65,SW,225,0.0,0.0,73,0.00,,,-99.99,VWS V12.07,2013-02-17 11:10:00,
2013-02-17 05:15:00,-18.2,-24.2,29.65,SW,225,0.0,0.0,73,0.00,,,-99.99,VWS V12.07,2013-02-17 11:15:00,
2013-02-17 05:20:00,-18.2,-24.2,29.65,SW,225,0.0,0.0,73,0.00,,,-99.99,VWS V12.07,2013-02-17 11:20:00,
2013-02-17 05:30:00,-18.5,-24.5,29.66,SW,225,0.0,0.0,73,0.00,,,-99.99,VWS V12.07,2013-02-17 11:30:00,
2013-02-17 05:35:00,-18.5,-24.5,29.65,SW,225,0.0,0.0,73,0.00,,,-99.99,VWS V12.07,2013-02-17 11:35:00,
2013-02-17 05:40:00,-18.5,-24.5,29.65,SW,225,0.0,0.0,73,0.00,,,-99.99,VWS V12.07,2013-02-17 11:40:00,
2013-02-17 05:45:00,-18.7,-24.7,29.65,SW,225,0.0,0.0,73,0.00,,,-99.99,VWS V12.07,2013-02-17 11:45:00,
2013-02-17 05:50:00,-18.7,-24.7,29.65,SW,225,0.0,0.0,73,0.00,,,-99.99,VWS V12.07,2013-02-17 11:50:00,
2013-02-17 05:55:00,-18.7,-24.7,29.66,SW,225,0.0,0.0,73,0.00,,,-99.99,VWS V12.07,2013-02-17 11:55:00,
2013-02-17 06:00:00,-18.7,-24.7,29.65,SW,225,0.0,0.0,73,0.00,,,-99.99,VWS V12.07,2013-02-17 12:00:00,
2013-02-17 06:05:00,-19.1,-25.1,29.65,SW,225,0.0,0.0,73,0.00,,,-99.99,VWS V12.07,2013-02-17 12:05:00,
2013-02-17 06:10:00,-19.1,-25.1,29.65,SW,225,0.0,0.0,73,0.00,,,-99.99,VWS V12.07,2013-02-17 12:10:00,
2013-02-17 06:15:00,-19.3,-25.3,29.65,SW,225,0.0,0.0,73,0.00,,,-99.99,VWS V12.07,2013-02-17 12:15:00,
2013-02-17 06:20:00,-19.3,-25.3,29.65,SW,225,0.0,0.0,73,0.00,,,-99.99,VWS V12.07,2013-02-17 12:20:00,
2013-02-17 06:25:00,-19.4,-25.4,29.65,SW,225,0.0,0.0,73,0.00,,,-99.99,VWS V12.07,2013-02-17 12:25:00,
2013-02-17 06:30:00,-19.6,-25.6,29.65,SW,225,0.0,0.0,73,0.00,,,-99.99,VWS V12.07,2013-02-17 12:30:00,
2013-02-17 06:35:00,-19.6,-25.6,29.65,SW,225,0.0,0.0,73,0.00,,,-99.99,VWS V12.07,2013-02-17 12:35:00,
2013-02-17 06:40:00,-19.6,-25.6,29.66,SW,225,0.0,0.0,73,0.00,,,-99.99,VWS V12.07,2013-02-17 12:40:00,
2013-02-17 06:45:00,-19.6,-25.6,29.65,SW,225,0.0,0.0,73,0.00,,,-99.99,VWS V12.07,2013-02-17 12:45:00,
2013-02-17 06:50:00,-19.8,-25.8,29.65,SW,225,0.0,0.0,73,0.00,,,-99.99,VWS V12.07,2013-02-17 12:50:00,
2013-02-17 06:55:00,-19.8,-25.8,29.65,SW,225,0.0,0.0,73,0.00,,,-99.99,VWS V12.07,2013-02-17 12:55:00,
2013-02-17 07:00:00,-20.0,-26.0,29.65,SW,225,0.0,0.0,73,0.00,,,-99.99,VWS V12.07,2013-02-17 13:00:00,
2013-02-17 07:05:00,-20.0,-26.0,29.65,SW,225,0.0,0.0,73,0.00,,,-99.99,VWS V12.07,2013-02-17 13:05:00,
2013-02-17 07:10:00,-20.2,-26.1,29.65,SW,225,0.0,0.0,73,0.00,,,-99.99,VWS V12.07,2013-02-17 13:10:00,
2013-02-17 07:15:00,-20.2,-26.1,29.65,SW,225,0.0,0.0,73,0.00,,,-99.99,VWS V12.07,2013-02-17 13:15:00,
2013-02-17 07:20:00,-20.0,-26.0,29.66,SW,225,0.0,0.0,73,0.00,,,-99.99,VWS V12.07,2013-02-17 13:20:00,
2013-02-17 07:25:00,-20.2,-26.1,29.66,SW,225,0.0,0.0,73,0.00,,,-99.99,VWS V12.07,2013-02-17 13:25:00,
2013-02-17 07:30:00,-20.2,-26.1,29.66,SW,225,0.0,0.0,73,0.00,,,-99.99,VWS V12.07,2013-02-17 13:30:00,
2013-02-17 07:35:00,-20.0,-26.0,29.66,SW,225,0.0,0.0,73,0.00,,,-99.99,VWS V12.07,2013-02-17 13:35:00,
2013-02-17 07:40:00,-20.0,-26.0,29.66,SW,225,0.0,0.0,73,0.00,,,-99.99,VWS V12.07,2013-02-17 13:40:00,
2013-02-17 07:45:00,-19.8,-25.8,29.66,SW,225,0.0,0.0,73,0.00,,,-99.99,VWS V12.07,2013-02-17 13:45:00,
2013-02-17 07:50:00,-19.6,-25.6,29.66,SW,225,0.0,0.0,73,0.00,,,-99.99,VWS V12.07,2013-02-17 13:50:00,
2013-02-17 07:55:00,-19.4,-25.4,29.65,SW,225,0.0,0.0,73,0.00,,,-99.99,VWS V12.07,2013-02-17 13:55:00,
2013-02-17 08:00:00,-19.1,-24.8,29.66,SW,225,0.0,0.0,74,0.00,,,-99.99,VWS V12.07,2013-02-17 14:00:00,
2013-02-17 08:05:00,-18.7,-24.4,29.66,SW,225,0.0,0.0,74,0.00,,,-99.99,VWS V12.07,2013-02-17 14:05:00,
2013-02-17 08:10:00,-18.5,-24.2,29.66,SW,225,0.0,0.0,74,0.00,,,-99.99,VWS V12.07,2013-02-17 14:10:00,
2013-02-17 08:15:00,-17.8,-23.6,29.66,SW,225,0.0,0.0,74,0.00,,,-99.99,VWS V12.07,2013-02-17 14:15:00,
2013-02-17 08:20:00,-17.6,-23.4,29.65,SW,225,0.0,0.0,74,0.00,,,-99.99,VWS V12.07,2013-02-17 14:20:00,
2013-02-17 08:25:00,-16.9,-22.7,29.65,SW,225,0.0,0.0,74,0.00,,,-99.99,VWS V12.07,2013-02-17 14:25:00,
2013-02-17 08:30:00,-16.0,-21.6,29.65,SW,225,0.0,0.0,75,0.00,,,-99.99,VWS V12.07,2013-02-17 14:30:00,
2013-02-17 08:35:00,-15.5,-21.1,29.65,SW,225,0.0,0.0,75,0.00,,,-99.99,VWS V12.07,2013-02-17 14:35:00,
2013-02-17 08:40:00,-14.6,-20.0,29.65,SW,225,0.0,0.0,76,0.00,,,-99.99,VWS V12.07,2013-02-17 14:40:00,
2013-02-17 08:45:00,-13.1,-18.5,29.65,SW,225,0.0,0.0,76,0.00,,,-99.99,VWS V12.07,2013-02-17 14:45:00,
2013-02-17 08:50:00,-12.2,-17.4,29.65,SW,225,0.0,0.0,77,0.00,,,-99.99,VWS V12.07,2013-02-17 14:50:00,
2013-02-17 08:55:00,-11.3,-16.5,29.65,SW,225,0.0,0.0,77,0.00,,,-99.99,VWS V12.07,2013-02-17 14:55:00,
2013-02-17 09:00:00,-9.9,-15.1,29.65,SW,225,0.0,0.0,77,0.00,,,-99.99,VWS V12.07,2013-02-17 15:00:00,
2013-02-17 09:05:00,-8.8,-13.8,29.65,SW,225,0.0,0.0,78,0.00,,,-99.99,VWS V12.07,2013-02-17 15:05:00,
2013-02-17 09:15:00,-6.5,-11.6,29.66,SW,225,0.0,0.0,78,0.00,,,-99.99,VWS V12.07,2013-02-17 15:15:00,
2013-02-17 09:20:00,-5.2,-10.0,29.65,SW,225,0.0,0.0,79,0.00,,,-99.99,VWS V12.07,2013-02-17 15:20:00,
2013-02-17 09:30:00,-2.5,-7.4,29.65,SW,225,0.0,0.0,79,0.00,,,-99.99,VWS V12.07,2013-02-17 15:30:00,
2013-02-17 09:35:00,-1.6,-6.5,29.65,SW,225,0.0,0.0,79,0.00,,,-99.99,VWS V12.07,2013-02-17 15:35:00,
2013-02-17 09:40:00,-0.9,-5.8,29.65,SW,225,0.0,0.0,79,0.00,,,-99.99,VWS V12.07,2013-02-17 15:40:00,
2013-02-17 09:50:00,1.2,-3.5,29.65,SW,225,0.0,0.0,80,0.00,,,-99.99,VWS V12.07,2013-02-17 15:50:00,
2013-02-17 09:55:00,2.1,-2.6,29.65,SW,225,0.0,0.0,80,0.00,,,-99.99,VWS V12.07,2013-02-17 15:55:00,
2013-02-17 10:00:00,3.3,-1.5,29.65,SW,225,0.0,1.1,80,0.00,,,-99.99,VWS V12.07,2013-02-17 16:00:00,
2013-02-17 10:10:00,5.3,0.2,29.65,SW,225,5.5,5.5,79,0.00,,,-99.99,VWS V12.07,2013-02-17 16:10:00,
2013-02-17 10:15:00,6.4,1.6,29.65,SW,225,5.5,5.5,80,0.00,,,-99.99,VWS V12.07,2013-02-17 16:15:00,
2013-02-17 10:20:00,7.1,2.0,29.65,SW,225,2.6,5.5,79,0.00,,,-99.99,VWS V12.07,2013-02-17 16:20:00,
2013-02-17 10:25:00,7.7,2.6,29.65,SW,225,5.1,5.5,79,0.00,,,-99.99,VWS V12.07,2013-02-17 16:25:00,
2013-02-17 10:30:00,8.4,3.0,29.65,SW,225,4.6,5.5,78,0.00,,,-99.99,VWS V12.07,2013-02-17 16:30:00,
2013-02-17 10:35:00,9.1,3.4,29.65,SW,225,6.0,6.0,77,0.00,,,-99.99,VWS V12.07,2013-02-17 16:35:00,
2013-02-17 10:40:00,9.6,3.6,29.64,SW,225,0.0,6.0,76,0.00,,,-99.99,VWS V12.07,2013-02-17 16:40:00,
2013-02-17 10:45:00,10.2,3.9,29.64,SW,225,5.1,6.0,75,0.00,,,-99.99,VWS V12.07,2013-02-17 16:45:00,
2013-02-17 10:50:00,10.7,4.1,29.64,SW,225,5.1,5.1,74,0.00,,,-99.99,VWS V12.07,2013-02-17 16:50:00,
2013-02-17 10:55:00,11.1,4.4,29.63,SW,225,2.4,5.1,74,0.00,,,-99.99,VWS V12.07,2013-02-17 16:55:00,
2013-02-17 11:00:00,11.4,4.4,29.63,SW,225,0.6,5.8,73,0.00,,,-99.99,VWS V12.07,2013-02-17 17:00:00,
2013-02-17 11:10:00,12.3,5.3,29.63,SW,225,0.0,3.3,73,0.00,,,-99.99,VWS V12.07,2013-02-17 17:10:00,
2013-02-17 11:15:00,13.1,6.1,29.63,SW,225,0.0,3.3,73,0.00,,,-99.99,VWS V12.07,2013-02-17 17:15:00,
2013-02-17 11:20:00,13.6,6.3,29.63,SW,225,0.8,4.0,72,0.00,,,-99.99,VWS V12.07,2013-02-17 17:20:00,
2013-02-17 11:25:00,13.8,6.5,29.63,SW,225,4.4,4.4,72,0.00,,,-99.99,VWS V12.07,2013-02-17 17:25:00,
2013-02-17 11:30:00,14.1,6.4,29.63,SW,225,4.0,4.4,71,0.00,,,-99.99,VWS V12.07,2013-02-17 17:30:00,
2013-02-17 11:35:00,14.5,6.8,29.63,SW,225,3.5,4.0,71,0.00,,,-99.99,VWS V12.07,2013-02-17 17:35:00,
2013-02-17 11:40:00,14.7,6.7,29.63,SW,225,1.1,4.2,70,0.00,,,-99.99,VWS V12.07,2013-02-17 17:40:00,
2013-02-17 11:45:00,15.2,6.9,29.62,SW,225,4.9,6.0,69,0.00,,,-99.99,VWS V12.07,2013-02-17 17:45:00,
2013-02-17 11:50:00,15.4,6.7,29.62,SW,225,3.3,5.8,68,0.00,,,-99.99,VWS V12.07,2013-02-17 17:50:00,
2013-02-17 11:55:00,15.4,6.7,29.62,SW,225,3.5,5.8,68,0.00,,,-99.99,VWS V12.07,2013-02-17 17:55:00,
2013-02-17 12:00:00,15.6,6.9,29.61,SW,225,5.8,5.8,68,0.00,,,-99.99,VWS V12.07,2013-02-17 18:00:00,
2013-02-17 12:05:00,15.8,7.1,29.61,SW,225,0.0,5.8,68,0.00,,,-99.99,VWS V12.07,2013-02-17 18:05:00,
2013-02-17 12:10:00,16.1,7.1,29.61,SW,225,3.1,5.8,67,0.00,,,-99.99,VWS V12.07,2013-02-17 18:10:00,
2013-02-17 12:20:00,16.5,7.1,29.60,SW,225,0.0,0.0,66,0.00,,,-99.99,VWS V12.07,2013-02-17 18:20:00,
2013-02-17 12:25:00,16.8,7.4,29.60,SW,225,0.0,4.2,66,0.00,,,-99.99,VWS V12.07,2013-02-17 18:25:00,
2013-02-17 12:30:00,17.2,7.8,29.59,SW,225,0.0,4.6,66,0.00,,,-99.99,VWS V12.07,2013-02-17 18:30:00,
2013-02-17 12:35:00,17.4,8.0,29.58,SW,225,0.0,1.5,66,0.00,,,-99.99,VWS V12.07,2013-02-17 18:35:00,
2013-02-17 12:45:00,17.9,8.1,29.59,SW,225,2.2,5.1,65,0.00,,,-99.99,VWS V12.07,2013-02-17 18:45:00,
2013-02-17 12:50:00,18.1,8.3,29.59,SW,225,4.4,4.4,65,0.00,,,-99.99,VWS V12.07,2013-02-17 18:50:00,
2013-02-17 12:55:00,18.3,8.5,29.59,SW,225,0.0,4.4,65,0.00,,,-99.99,VWS V12.07,2013-02-17 18:55:00,
2013-02-17 13:00:00,18.5,8.4,29.58,SW,225,0.0,4.4,64,0.00,,,-99.99,VWS V12.07,2013-02-17 19:00:00,
2013-02-17 13:10:00,18.6,8.5,29.57,SW,225,5.1,5.1,64,0.00,,,-99.99,VWS V12.07,2013-02-17 19:10:00,
2013-02-17 13:15:00,18.8,8.6,29.57,SW,225,2.0,5.1,64,0.00,,,-99.99,VWS V12.07,2013-02-17 19:15:00,
2013-02-17 13:20:00,19.0,8.8,29.57,SW,225,2.6,5.3,64,0.00,,,-99.99,VWS V12.07,2013-02-17 19:20:00,
2013-02-17 13:25:00,19.2,9.0,29.57,SW,225,0.0,5.5,64,0.00,,,-99.99,VWS V12.07,2013-02-17 19:25:00,
2013-02-17 13:30:00,19.2,9.0,29.57,SW,225,0.0,5.5,64,0.00,,,-99.99,VWS V12.07,2013-02-17 19:30:00,
2013-02-17 13:35:00,19.5,9.3,29.57,SW,225,0.0,2.0,64,0.00,,,-99.99,VWS V12.07,2013-02-17 19:35:00,
2013-02-17 13:40:00,19.5,9.3,29.57,SW,225,1.1,2.0,64,0.00,,,-99.99,VWS V12.07,2013-02-17 19:40:00,
2013-02-17 13:45:00,19.9,9.7,29.56,SW,225,0.0,2.0,64,0.00,,,-99.99,VWS V12.07,2013-02-17 19:45:00,
2013-02-17 13:50:00,19.9,9.7,29.56,SW,225,2.9,3.1,64,0.00,,,-99.99,VWS V12.07,2013-02-17 19:50:00,
2013-02-17 13:55:00,20.1,9.9,29.55,SW,225,0.0,3.1,64,0.00,,,-99.99,VWS V12.07,2013-02-17 19:55:00,
2013-02-17 14:00:00,20.4,9.8,29.55,SW,225,0.0,3.5,63,0.00,,,-99.99,VWS V12.07,2013-02-17 20:00:00,
2013-02-17 14:10:00,20.4,9.5,29.54,SW,225,0.0,6.4,62,0.00,,,-99.99,VWS V12.07,2013-02-17 20:10:00,
2013-02-17 14:15:00,20.8,9.9,29.55,SW,225,7.8,7.8,62,0.00,,,-99.99,VWS V12.07,2013-02-17 20:15:00,
2013-02-17 14:20:00,20.8,9.9,29.55,SW,225,0.0,7.8,62,0.00,,,-99.99,VWS V12.07,2013-02-17 20:20:00,
2013-02-17 14:25:00,21.0,10.0,29.57,SW,225,0.0,7.8,62,0.00,,,-99.99,VWS V12.07,2013-02-17 20:25:00,
2013-02-17 14:30:00,21.0,10.0,29.57,SW,225,4.9,7.8,62,0.00,,,-99.99,VWS V12.07,2013-02-17 20:30:00,
2013-02-17 14:35:00,21.0,10.0,29.56,SW,225,2.6,6.4,62,0.00,,,-99.99,VWS V12.07,2013-02-17 20:35:00,
2013-02-17 14:40:00,20.8,9.9,29.56,SW,225,0.0,6.4,62,0.00,,,-99.99,VWS V12.07,2013-02-17 20:40:00,
2013-02-17 14:45:00,20.8,9.9,29.56,SW,225,5.1,6.4,62,0.00,,,-99.99,VWS V12.07,2013-02-17 20:45:00,
2013-02-17 14:50:00,20.8,9.9,29.55,SW,225,0.0,5.1,62,0.00,,,-99.99,VWS V12.07,2013-02-17 20:50:00,
2013-02-17 14:55:00,20.8,9.9,29.55,SW,225,2.4,5.1,62,0.00,,,-99.99,VWS V12.07,2013-02-17 20:55:00,
2013-02-17 15:00:00,21.0,10.0,29.55,SW,225,0.0,5.1,62,0.00,,,-99.99,VWS V12.07,2013-02-17 21:00:00,
2013-02-17 15:10:00,21.0,9.7,29.55,SW,225,0.0,5.8,61,0.00,,,-99.99,VWS V12.07,2013-02-17 21:10:00,
2013-02-17 15:20:00,21.0,9.7,29.56,SW,225,3.1,3.5,61,0.00,,,-99.99,VWS V12.07,2013-02-17 21:20:00,
2013-02-17 15:25:00,21.0,9.7,29.55,SW,225,3.3,3.5,61,0.00,,,-99.99,VWS V12.07,2013-02-17 21:25:00,
2013-02-17 15:30:00,21.0,9.7,29.55,SW,225,0.0,3.5,61,0.00,,,-99.99,VWS V12.07,2013-02-17 21:30:00,
2013-02-17 15:35:00,21.0,9.7,29.54,SW,225,0.0,5.1,61,0.00,,,-99.99,VWS V12.07,2013-02-17 21:35:00,
2013-02-17 15:40:00,21.0,9.7,29.53,SW,225,0.0,5.1,61,0.00,,,-99.99,VWS V12.07,2013-02-17 21:40:00,
2013-02-17 15:45:00,21.0,9.7,29.52,SW,225,0.0,5.1,61,0.00,,,-99.99,VWS V12.07,2013-02-17 21:45:00,
2013-02-17 15:55:00,21.0,9.7,29.51,SW,225,0.0,0.0,61,0.00,,,-99.99,VWS V12.07,2013-02-17 21:55:00,
2013-02-17 16:00:00,21.0,9.7,29.51,SW,225,0.0,0.0,61,0.00,,,-99.99,VWS V12.07,2013-02-17 22:00:00,
2013-02-17 16:10:00,20.4,8.7,29.52,SW,225,0.0,0.0,60,0.00,,,-99.99,VWS V12.07,2013-02-17 22:10:00,
2013-02-17 16:15:00,20.3,8.6,29.54,SW,225,0.0,0.0,60,0.00,,,-99.99,VWS V12.07,2013-02-17 22:15:00,
2013-02-17 16:20:00,19.9,8.3,29.54,SW,225,0.0,3.5,60,0.00,,,-99.99,VWS V12.07,2013-02-17 22:20:00,
2013-02-17 16:25:00,19.7,8.4,29.54,SW,225,0.0,3.5,61,0.00,,,-99.99,VWS V12.07,2013-02-17 22:25:00,
2013-02-17 16:30:00,19.4,8.2,29.53,SW,225,0.0,3.5,61,0.00,,,-99.99,VWS V12.07,2013-02-17 22:30:00,
2013-02-17 16:35:00,19.2,8.0,29.53,SW,225,0.0,0.0,61,0.00,,,-99.99,VWS V12.07,2013-02-17 22:35:00,
2013-02-17 16:40:00,19.0,7.8,29.53,SW,225,0.0,0.0,61,0.00,,,-99.99,VWS V12.07,2013-02-17 22:40:00,
2013-02-17 16:45:00,18.8,7.6,29.53,SW,225,0.0,0.0,61,0.00,,,-99.99,VWS V12.07,2013-02-17 22:45:00,
2013-02-17 16:50:00,18.5,7.3,29.53,SW,225,0.0,0.0,61,0.00,,,-99.99,VWS V12.07,2013-02-17 22:50:00,
2013-02-17 17:00:00,18.1,6.9,29.53,SW,225,5.8,5.8,61,0.00,,,-99.99,VWS V12.07,2013-02-17 23:00:00,
2013-02-17 17:10:00,17.4,6.3,29.53,SW,225,0.0,5.8,61,0.00,,,-99.99,VWS V12.07,2013-02-17 23:10:00,
2013-02-17 17:15:00,17.4,6.3,29.53,SW,225,0.0,5.8,61,0.00,,,-99.99,VWS V12.07,2013-02-17 23:15:00,
2013-02-17 17:20:00,17.2,6.1,29.52,SW,225,0.0,0.0,61,0.00,,,-99.99,VWS V12.07,2013-02-17 23:20:00,
2013-02-17 17:25:00,16.8,5.7,29.52,SW,225,0.0,0.0,61,0.00,,,-99.99,VWS V12.07,2013-02-17 23:25:00,
2013-02-17 17:30:00,16.8,5.7,29.52,SW,225,0.0,0.0,61,0.00,,,-99.99,VWS V12.07,2013-02-17 23:30:00,
2013-02-17 17:35:00,16.7,6.0,29.52,SW,225,0.0,0.0,62,0.00,,,-99.99,VWS V12.07,2013-02-17 23:35:00,
2013-02-17 17:45:00,16.3,5.6,29.52,SW,225,0.0,0.0,62,0.00,,,-99.99,VWS V12.07,2013-02-17 23:45:00,
2013-02-17 17:50:00,16.3,5.6,29.52,SW,225,0.0,0.0,62,0.00,,,-99.99,VWS V12.07,2013-02-17 23:50:00,
2013-02-17 17:55:00,16.1,5.4,29.52,SW,225,0.0,0.0,62,0.00,,,-99.99,VWS V12.07,2013-02-17 23:55:00,
2013-02-17 18:00:00,15.9,5.2,29.51,SW,225,0.0,0.0,62,0.00,,,-99.99,VWS V12.07,2013-02-18 00:00:00,
2013-02-17 18:05:00,15.9,5.6,29.52,SW,225,0.0,0.0,63,0.00,,,-99.99,VWS V12.07,2013-02-18 00:05:00,
2013-02-17 18:10:00,15.8,5.1,29.51,SW,225,0.0,0.0,62,0.00,,,-99.99,VWS V12.07,2013-02-18 00:10:00,
2013-02-17 18:15:00,15.6,4.9,29.52,SW,225,0.0,0.0,62,0.00,,,-99.99,VWS V12.07,2013-02-18 00:15:00,
2013-02-17 18:20:00,15.6,4.9,29.52,SW,225,0.0,0.0,62,0.00,,,-99.99,VWS V12.07,2013-02-18 00:20:00,
2013-02-17 18:25:00,15.6,5.3,29.52,SW,225,0.0,0.0,63,0.00,,,-99.99,VWS V12.07,2013-02-18 00:25:00,
2013-02-17 18:30:00,15.6,5.3,29.51,SW,225,0.0,1.3,63,0.00,,,-99.99,VWS V12.07,2013-02-18 00:30:00,
2013-02-17 18:35:00,15.6,5.3,29.51,SW,225,0.0,0.0,63,0.00,,,-99.99,VWS V12.07,2013-02-18 00:35:00,
2013-02-17 18:40:00,15.6,5.3,29.51,SW,225,0.0,0.0,63,0.00,,,-99.99,VWS V12.07,2013-02-18 00:40:00,
2013-02-17 18:45:00,15.6,5.3,29.50,SW,225,0.0,0.0,63,0.00,,,-99.99,VWS V12.07,2013-02-18 00:45:00,
2013-02-17 18:50:00,15.4,5.1,29.50,SW,225,0.0,3.3,63,0.00,,,-99.99,VWS V12.07,2013-02-18 00:50:00,
2013-02-17 18:55:00,15.4,5.1,29.50,SW,225,0.0,3.3,63,0.00,,,-99.99,VWS V12.07,2013-02-18 00:55:00,
2013-02-17 19:00:00,15.4,5.1,29.50,SW,225,0.0,3.3,63,0.00,,,-99.99,VWS V12.07,2013-02-18 01:00:00,
2013-02-17 19:05:00,15.4,5.1,29.50,SW,225,0.0,0.0,63,0.00,,,-99.99,VWS V12.07,2013-02-18 01:05:00,
2013-02-17 19:10:00,15.2,4.9,29.50,SW,225,0.0,0.0,63,0.00,,,-99.99,VWS V12.07,2013-02-18 01:10:00,
2013-02-17 19:15:00,15.2,5.2,29.50,SW,225,0.0,0.0,64,0.00,,,-99.99,VWS V12.07,2013-02-18 01:15:00,
2013-02-17 19:20:00,15.0,5.0,29.50,SW,225,0.0,0.0,64,0.00,,,-99.99,VWS V12.07,2013-02-18 01:20:00,
2013-02-17 19:25:00,15.0,5.0,29.50,SW,225,0.0,0.0,64,0.00,,,-99.99,VWS V12.07,2013-02-18 01:25:00,
2013-02-17 19:30:00,15.0,5.0,29.50,SW,225,0.0,0.0,64,0.00,,,-99.99,VWS V12.07,2013-02-18 01:30:00,
2013-02-17 19:35:00,14.9,4.9,29.49,SW,225,0.0,0.0,64,0.00,,,-99.99,VWS V12.07,2013-02-18 01:35:00,
2013-02-17 19:40:00,14.9,4.9,29.49,SW,225,0.0,2.4,64,0.00,,,-99.99,VWS V12.07,2013-02-18 01:40:00,
2013-02-17 19:45:00,14.7,4.8,29.49,SW,225,0.0,2.4,64,0.00,,,-99.99,VWS V12.07,2013-02-18 01:45:00,
2013-02-17 19:55:00,14.5,4.6,29.49,SW,225,0.0,0.0,64,0.00,,,-99.99,VWS V12.07,2013-02-18 01:55:00,
2013-02-17 20:00:00,14.5,4.6,29.49,SW,225,0.0,0.0,64,0.00,,,-99.99,VWS V12.07,2013-02-18 02:00:00,
2013-02-17 20:10:00,14.1,4.2,29.49,SW,225,0.0,0.0,64,0.00,,,-99.99,VWS V12.07,2013-02-18 02:10:00,
2013-02-17 20:15:00,14.1,4.2,29.50,SW,225,0.0,0.0,64,0.00,,,-99.99,VWS V12.07,2013-02-18 02:15:00,
2013-02-17 20:20:00,14.1,4.2,29.49,SW,225,0.0,0.0,64,0.00,,,-99.99,VWS V12.07,2013-02-18 02:20:00,
2013-02-17 20:30:00,13.8,3.9,29.50,SW,225,0.0,0.0,64,0.00,,,-99.99,VWS V12.07,2013-02-18 02:30:00,
2013-02-17 20:35:00,13.8,3.9,29.50,SW,225,4.9,4.9,64,0.00,,,-99.99,VWS V12.07,2013-02-18 02:35:00,
2013-02-17 20:40:00,13.8,3.9,29.50,SW,225,0.0,4.9,64,0.00,,,-99.99,VWS V12.07,2013-02-18 02:40:00,
2013-02-17 20:45:00,13.6,3.7,29.50,SW,225,0.0,4.9,64,0.00,,,-99.99,VWS V12.07,2013-02-18 02:45:00,
2013-02-17 20:50:00,13.6,3.7,29.49,SW,225,0.0,0.0,64,0.00,,,-99.99,VWS V12.07,2013-02-18 02:50:00,
2013-02-17 20:55:00,13.6,3.7,29.49,SW,225,0.0,4.6,64,0.00,,,-99.99,VWS V12.07,2013-02-18 02:55:00,
2013-02-17 21:00:00,13.6,4.0,29.49,SW,225,0.0,4.6,65,0.00,,,-99.99,VWS V12.07,2013-02-18 03:00:00,
2013-02-17 21:05:00,13.2,3.7,29.48,SW,225,0.0,0.0,65,0.00,,,-99.99,VWS V12.07,2013-02-18 03:05:00,
2013-02-17 21:10:00,13.2,3.7,29.48,SW,225,0.0,0.0,65,0.00,,,-99.99,VWS V12.07,2013-02-18 03:10:00,
2013-02-17 21:15:00,13.2,3.7,29.48,SW,225,0.0,0.0,65,0.00,,,-99.99,VWS V12.07,2013-02-18 03:15:00,
2013-02-17 21:20:00,13.2,3.7,29.47,SW,225,0.0,0.0,65,0.00,,,-99.99,VWS V12.07,2013-02-18 03:20:00,
2013-02-17 21:25:00,13.1,3.6,29.47,SW,225,2.9,2.9,65,0.00,,,-99.99,VWS V12.07,2013-02-18 03:25:00,
2013-02-17 21:30:00,13.1,3.6,29.47,SW,225,0.0,2.9,65,0.00,,,-99.99,VWS V12.07,2013-02-18 03:30:00,
2013-02-17 21:35:00,13.1,3.6,29.47,SW,225,0.0,0.0,65,0.00,,,-99.99,VWS V12.07,2013-02-18 03:35:00,
2013-02-17 21:40:00,13.1,3.6,29.47,SW,225,0.0,0.0,65,0.00,,,-99.99,VWS V12.07,2013-02-18 03:40:00,
2013-02-17 21:45:00,13.1,3.6,29.46,SW,225,0.0,0.0,65,0.00,,,-99.99,VWS V12.07,2013-02-18 03:45:00,
2013-02-17 21:50:00,12.9,3.4,29.46,SW,225,0.0,1.1,65,0.00,,,-99.99,VWS V12.07,2013-02-18 03:50:00,
2013-02-17 21:55:00,13.1,3.6,29.46,SW,225,2.0,2.2,65,0.00,,,-99.99,VWS V12.07,2013-02-18 03:55:00,
2013-02-17 22:00:00,12.9,3.4,29.45,SW,225,0.0,2.2,65,0.00,,,-99.99,VWS V12.07,2013-02-18 04:00:00,
2013-02-17 22:10:00,13.1,3.9,29.45,SW,225,0.0,1.3,66,0.00,,,-99.99,VWS V12.07,2013-02-18 04:10:00,
2013-02-17 22:15:00,13.1,3.9,29.45,SW,225,0.0,5.1,66,0.00,,,-99.99,VWS V12.07,2013-02-18 04:15:00,
2013-02-17 22:25:00,13.1,3.9,29.47,SW,225,0.0,0.0,66,0.00,,,-99.99,VWS V12.07,2013-02-18 04:25:00,
2013-02-17 22:30:00,13.1,3.9,29.46,SW,225,4.0,4.0,66,0.00,,,-99.99,VWS V12.07,2013-02-18 04:30:00,
2013-02-17 22:35:00,13.1,3.9,29.46,SW,225,0.0,4.0,66,0.00,,,-99.99,VWS V12.07,2013-02-18 04:35:00,
2013-02-17 22:45:00,13.2,4.3,29.46,SW,225,0.0,4.0,67,0.00,,,-99.99,VWS V12.07,2013-02-18 04:45:00,
2013-02-17 22:50:00,13.2,4.3,29.46,SW,225,0.0,0.0,67,0.00,,,-99.99,VWS V12.07,2013-02-18 04:50:00,
2013-02-17 22:55:00,13.2,4.3,29.45,SW,225,0.0,0.0,67,0.00,,,-99.99,VWS V12.07,2013-02-18 04:55:00,
2013-02-17 23:00:00,13.2,4.3,29.45,SW,225,0.0,0.0,67,0.00,,,-99.99,VWS V12.07,2013-02-18 05:00:00,
2013-02-17 23:05:00,13.6,4.7,29.45,SW,225,0.0,0.0,67,0.00,,,-99.99,VWS V12.07,2013-02-18 05:05:00,
2013-02-17 23:10:00,13.6,4.7,29.45,SW,225,0.0,0.0,67,0.00,,,-99.99,VWS V12.07,2013-02-18 05:10:00,
2013-02-17 23:15:00,13.6,4.7,29.45,SW,225,0.0,0.0,67,0.00,,,-99.99,VWS V12.07,2013-02-18 05:15:00,
2013-02-17 23:20:00,13.8,5.2,29.45,SW,225,5.3,5.3,68,0.00,,,-99.99,VWS V12.07,2013-02-18 05:20:00,
2013-02-17 23:25:00,13.8,5.2,29.45,SW,225,1.7,5.5,68,0.00,,,-99.99,VWS V12.07,2013-02-18 05:25:00,
2013-02-17 23:35:00,14.1,5.5,29.44,SW,225,0.0,0.0,68,0.00,,,-99.99,VWS V12.07,2013-02-18 05:35:00,
2013-02-17 23:40:00,14.1,5.5,29.44,SW,225,0.0,0.0,68,0.00,,,-99.99,VWS V12.07,2013-02-18 05:40:00,
2013-02-17 23:45:00,14.3,5.7,29.44,SW,225,0.0,0.0,68,0.00,,,-99.99,VWS V12.07,2013-02-18 05:45:00,
2013-02-17 23:50:00,14.3,5.7,29.44,SW,225,2.4,2.4,68,0.00,,,-99.99,VWS V12.07,2013-02-18 05:50:00,
2013-02-17 23:55:00,14.7,6.1,29.44,SW,225,0.0,2.4,68,0.00,,,-99.99,VWS V12.07,2013-02-18 05:55:00,